sensor_id;sensor_type;location;lat;lon;timestamp;P1;durP1;ratioP1;P2;durP2;ratioP2
13244;SDS011;6689;53.400;12.486;2024-01-06T00:00:28;11.80;;;7.55;;
13244;SDS011;6689;53.400;12.486;2024-01-06T00:02:56;13.48;;;8.50;;
13244;SDS011;6689;53.400;12.486;2024-01-06T00:05:23;12.68;;;8.95;;
13244;SDS011;6689;53.400;12.486;2024-01-06T00:07:51;16.52;;;9.90;;
13244;SDS011;6689;53.400;12.486;2024-01-06T00:10:18;13.55;;;7.55;;
13244;SDS011;6689;53.400;12.486;2024-01-06T00:12:47;11.63;;;7.57;;
13244;SDS011;6689;53.400;12.486;2024-01-06T00:15:15;13.30;;;8.23;;
13244;SDS011;6689;53.400;12.486;2024-01-06T00:17:43;12.95;;;8.95;;
13244;SDS011;6689;53.400;12.486;2024-01-06T00:20:11;14.05;;;8.88;;
13244;SDS011;6689;53.400;12.486;2024-01-06T00:22:40;12.20;;;8.27;;
13244;SDS011;6689;53.400;12.486;2024-01-06T00:25:09;13.48;;;8.13;;
13244;SDS011;6689;53.400;12.486;2024-01-06T00:27:36;16.58;;;8.00;;
13244;SDS011;6689;53.400;12.486;2024-01-06T00:30:06;12.88;;;8.68;;
13244;SDS011;6689;53.400;12.486;2024-01-06T00:32:34;12.73;;;8.30;;
13244;SDS011;6689;53.400;12.486;2024-01-06T00:35:01;14.93;;;9.00;;
13244;SDS011;6689;53.400;12.486;2024-01-06T00:37:28;14.50;;;9.38;;
13244;SDS011;6689;53.400;12.486;2024-01-06T00:39:55;14.57;;;9.02;;
13244;SDS011;6689;53.400;12.486;2024-01-06T00:42:23;11.65;;;7.65;;
13244;SDS011;6689;53.400;12.486;2024-01-06T00:44:50;14.65;;;8.48;;
13244;SDS011;6689;53.400;12.486;2024-01-06T00:47:19;14.50;;;9.68;;
13244;SDS011;6689;53.400;12.486;2024-01-06T00:49:49;15.95;;;9.32;;
13244;SDS011;6689;53.400;12.486;2024-01-06T00:52:16;15.68;;;9.32;;
13244;SDS011;6689;53.400;12.486;2024-01-06T00:54:45;14.18;;;9.73;;
13244;SDS011;6689;53.400;12.486;2024-01-06T00:57:12;15.10;;;9.05;;
13244;SDS011;6689;53.400;12.486;2024-01-06T00:59:41;17.60;;;9.98;;
13244;SDS011;6689;53.400;12.486;2024-01-06T01:02:08;20.92;;;11.73;;
13244;SDS011;6689;53.400;12.486;2024-01-06T01:04:37;21.70;;;9.90;;
13244;SDS011;6689;53.400;12.486;2024-01-06T01:07:07;18.23;;;10.85;;
13244;SDS011;6689;53.400;12.486;2024-01-06T01:09:34;22.27;;;11.70;;
13244;SDS011;6689;53.400;12.486;2024-01-06T01:12:01;20.50;;;11.55;;
13244;SDS011;6689;53.400;12.486;2024-01-06T01:14:29;22.38;;;12.27;;
13244;SDS011;6689;53.400;12.486;2024-01-06T01:16:57;22.27;;;12.93;;
13244;SDS011;6689;53.400;12.486;2024-01-06T01:19:24;18.13;;;10.57;;
13244;SDS011;6689;53.400;12.486;2024-01-06T01:21:53;30.17;;;16.73;;
13244;SDS011;6689;53.400;12.486;2024-01-06T01:24:20;24.10;;;12.77;;
13244;SDS011;6689;53.400;12.486;2024-01-06T01:26:48;22.83;;;13.52;;
13244;SDS011;6689;53.400;12.486;2024-01-06T01:29:18;19.40;;;12.18;;
13244;SDS011;6689;53.400;12.486;2024-01-06T01:31:45;25.77;;;13.90;;
13244;SDS011;6689;53.400;12.486;2024-01-06T01:34:12;23.25;;;13.73;;
13244;SDS011;6689;53.400;12.486;2024-01-06T01:36:40;22.88;;;13.43;;
13244;SDS011;6689;53.400;12.486;2024-01-06T01:39:09;21.45;;;12.90;;
13244;SDS011;6689;53.400;12.486;2024-01-06T01:41:37;21.42;;;13.02;;
13244;SDS011;6689;53.400;12.486;2024-01-06T01:44:04;21.13;;;13.73;;
13244;SDS011;6689;53.400;12.486;2024-01-06T01:46:31;17.50;;;10.30;;
13244;SDS011;6689;53.400;12.486;2024-01-06T01:49:00;20.38;;;14.05;;
13244;SDS011;6689;53.400;12.486;2024-01-06T01:51:29;22.83;;;12.57;;
13244;SDS011;6689;53.400;12.486;2024-01-06T01:53:57;20.38;;;12.05;;
13244;SDS011;6689;53.400;12.486;2024-01-06T01:56:27;20.10;;;11.95;;
13244;SDS011;6689;53.400;12.486;2024-01-06T01:58:59;22.60;;;12.18;;
13244;SDS011;6689;53.400;12.486;2024-01-06T02:01:28;19.45;;;10.32;;
13244;SDS011;6689;53.400;12.486;2024-01-06T02:03:59;18.38;;;10.10;;
13244;SDS011;6689;53.400;12.486;2024-01-06T02:06:26;20.60;;;12.07;;
13244;SDS011;6689;53.400;12.486;2024-01-06T02:08:55;24.90;;;13.52;;
13244;SDS011;6689;53.400;12.486;2024-01-06T02:11:23;17.35;;;11.88;;
13244;SDS011;6689;53.400;12.486;2024-01-06T02:13:53;16.52;;;11.50;;
13244;SDS011;6689;53.400;12.486;2024-01-06T02:16:21;17.50;;;10.35;;
13244;SDS011;6689;53.400;12.486;2024-01-06T02:18:49;21.75;;;13.13;;
13244;SDS011;6689;53.400;12.486;2024-01-06T02:21:17;19.70;;;12.25;;
13244;SDS011;6689;53.400;12.486;2024-01-06T02:23:49;20.13;;;12.82;;
13244;SDS011;6689;53.400;12.486;2024-01-06T02:26:16;31.13;;;17.08;;
13244;SDS011;6689;53.400;12.486;2024-01-06T02:28:43;24.63;;;16.17;;
13244;SDS011;6689;53.400;12.486;2024-01-06T02:31:13;37.10;;;21.92;;
13244;SDS011;6689;53.400;12.486;2024-01-06T02:33:40;32.58;;;17.88;;
13244;SDS011;6689;53.400;12.486;2024-01-06T02:36:08;39.42;;;21.58;;
13244;SDS011;6689;53.400;12.486;2024-01-06T02:38:35;30.90;;;18.35;;
13244;SDS011;6689;53.400;12.486;2024-01-06T02:41:04;30.73;;;18.67;;
13244;SDS011;6689;53.400;12.486;2024-01-06T02:43:33;36.20;;;20.13;;
13244;SDS011;6689;53.400;12.486;2024-01-06T02:46:00;44.35;;;24.92;;
13244;SDS011;6689;53.400;12.486;2024-01-06T02:48:29;39.10;;;22.70;;
13244;SDS011;6689;53.400;12.486;2024-01-06T02:50:57;52.28;;;28.17;;
13244;SDS011;6689;53.400;12.486;2024-01-06T02:53:24;80.50;;;38.70;;
13244;SDS011;6689;53.400;12.486;2024-01-06T02:55:51;44.75;;;27.23;;
13244;SDS011;6689;53.400;12.486;2024-01-06T02:58:20;40.35;;;21.23;;
13244;SDS011;6689;53.400;12.486;2024-01-06T03:00:48;28.30;;;17.52;;
13244;SDS011;6689;53.400;12.486;2024-01-06T03:03:15;29.58;;;16.52;;
13244;SDS011;6689;53.400;12.486;2024-01-06T03:05:43;37.78;;;18.98;;
13244;SDS011;6689;53.400;12.486;2024-01-06T03:08:14;22.88;;;12.30;;
13244;SDS011;6689;53.400;12.486;2024-01-06T03:10:41;51.92;;;28.10;;
13244;SDS011;6689;53.400;12.486;2024-01-06T03:13:09;55.42;;;31.83;;
13244;SDS011;6689;53.400;12.486;2024-01-06T03:15:38;34.25;;;18.42;;
13244;SDS011;6689;53.400;12.486;2024-01-06T03:18:07;27.98;;;14.75;;
13244;SDS011;6689;53.400;12.486;2024-01-06T03:20:34;22.52;;;13.65;;
13244;SDS011;6689;53.400;12.486;2024-01-06T03:23:02;27.30;;;15.52;;
13244;SDS011;6689;53.400;12.486;2024-01-06T03:25:46;21.58;;;13.45;;
13244;SDS011;6689;53.400;12.486;2024-01-06T03:28:13;20.35;;;10.88;;
13244;SDS011;6689;53.400;12.486;2024-01-06T03:30:43;16.90;;;11.30;;
13244;SDS011;6689;53.400;12.486;2024-01-06T03:33:11;21.73;;;12.05;;
13244;SDS011;6689;53.400;12.486;2024-01-06T03:35:38;19.73;;;13.27;;
13244;SDS011;6689;53.400;12.486;2024-01-06T03:38:05;18.83;;;10.15;;
13244;SDS011;6689;53.400;12.486;2024-01-06T03:40:36;23.05;;;13.80;;
13244;SDS011;6689;53.400;12.486;2024-01-06T03:43:05;18.27;;;10.63;;
13244;SDS011;6689;53.400;12.486;2024-01-06T03:45:34;22.77;;;12.45;;
13244;SDS011;6689;53.400;12.486;2024-01-06T03:48:03;21.50;;;12.68;;
13244;SDS011;6689;53.400;12.486;2024-01-06T03:50:31;20.00;;;12.23;;
13244;SDS011;6689;53.400;12.486;2024-01-06T03:52:58;20.30;;;13.40;;
13244;SDS011;6689;53.400;12.486;2024-01-06T03:55:25;19.50;;;12.00;;
13244;SDS011;6689;53.400;12.486;2024-01-06T03:57:52;23.15;;;12.90;;
13244;SDS011;6689;53.400;12.486;2024-01-06T04:00:20;18.55;;;10.05;;
13244;SDS011;6689;53.400;12.486;2024-01-06T04:02:48;21.33;;;12.15;;
13244;SDS011;6689;53.400;12.486;2024-01-06T04:05:17;21.25;;;13.45;;
13244;SDS011;6689;53.400;12.486;2024-01-06T04:07:44;18.40;;;10.63;;
13244;SDS011;6689;53.400;12.486;2024-01-06T04:10:12;21.58;;;12.52;;
13244;SDS011;6689;53.400;12.486;2024-01-06T04:12:39;17.33;;;10.68;;
13244;SDS011;6689;53.400;12.486;2024-01-06T04:15:07;22.42;;;11.02;;
13244;SDS011;6689;53.400;12.486;2024-01-06T04:17:34;15.75;;;10.48;;
13244;SDS011;6689;53.400;12.486;2024-01-06T04:20:02;17.75;;;10.80;;
13244;SDS011;6689;53.400;12.486;2024-01-06T04:22:30;18.15;;;10.98;;
13244;SDS011;6689;53.400;12.486;2024-01-06T04:24:58;18.10;;;10.90;;
13244;SDS011;6689;53.400;12.486;2024-01-06T04:27:25;16.48;;;9.85;;
13244;SDS011;6689;53.400;12.486;2024-01-06T04:29:53;16.65;;;11.43;;
13244;SDS011;6689;53.400;12.486;2024-01-06T04:32:20;15.50;;;9.63;;
13244;SDS011;6689;53.400;12.486;2024-01-06T04:34:47;16.20;;;10.40;;
13244;SDS011;6689;53.400;12.486;2024-01-06T04:37:15;20.33;;;12.13;;
13244;SDS011;6689;53.400;12.486;2024-01-06T04:39:43;19.85;;;11.45;;
13244;SDS011;6689;53.400;12.486;2024-01-06T04:42:11;18.30;;;9.43;;
13244;SDS011;6689;53.400;12.486;2024-01-06T04:44:40;10.20;;;6.72;;
13244;SDS011;6689;53.400;12.486;2024-01-06T04:47:08;15.43;;;9.52;;
13244;SDS011;6689;53.400;12.486;2024-01-06T04:49:37;18.55;;;10.85;;
13244;SDS011;6689;53.400;12.486;2024-01-06T04:52:04;14.52;;;9.02;;
13244;SDS011;6689;53.400;12.486;2024-01-06T04:54:31;16.65;;;10.20;;
13244;SDS011;6689;53.400;12.486;2024-01-06T04:57:01;17.02;;;10.18;;
13244;SDS011;6689;53.400;12.486;2024-01-06T04:59:29;17.98;;;10.35;;
13244;SDS011;6689;53.400;12.486;2024-01-06T05:01:57;17.45;;;10.98;;
13244;SDS011;6689;53.400;12.486;2024-01-06T05:04:26;17.05;;;10.05;;
13244;SDS011;6689;53.400;12.486;2024-01-06T05:06:56;15.85;;;9.50;;
13244;SDS011;6689;53.400;12.486;2024-01-06T05:09:23;14.20;;;8.95;;
13244;SDS011;6689;53.400;12.486;2024-01-06T05:11:50;18.48;;;10.48;;
13244;SDS011;6689;53.400;12.486;2024-01-06T05:14:20;15.30;;;9.95;;
13244;SDS011;6689;53.400;12.486;2024-01-06T05:16:47;19.83;;;10.98;;
13244;SDS011;6689;53.400;12.486;2024-01-06T05:19:15;14.90;;;9.32;;
13244;SDS011;6689;53.400;12.486;2024-01-06T05:21:45;17.65;;;10.93;;
13244;SDS011;6689;53.400;12.486;2024-01-06T05:24:13;15.50;;;9.98;;
13244;SDS011;6689;53.400;12.486;2024-01-06T05:26:40;14.02;;;9.80;;
13244;SDS011;6689;53.400;12.486;2024-01-06T05:29:08;18.10;;;10.38;;
13244;SDS011;6689;53.400;12.486;2024-01-06T05:31:38;12.73;;;8.07;;
13244;SDS011;6689;53.400;12.486;2024-01-06T05:34:05;17.67;;;10.05;;
13244;SDS011;6689;53.400;12.486;2024-01-06T05:36:32;18.65;;;10.45;;
13244;SDS011;6689;53.400;12.486;2024-01-06T05:39:00;14.15;;;9.20;;
13244;SDS011;6689;53.400;12.486;2024-01-06T05:41:28;14.93;;;9.13;;
13244;SDS011;6689;53.400;12.486;2024-01-06T05:43:56;13.38;;;8.65;;
13244;SDS011;6689;53.400;12.486;2024-01-06T05:46:24;14.20;;;8.95;;
13244;SDS011;6689;53.400;12.486;2024-01-06T05:48:52;16.17;;;10.35;;
13244;SDS011;6689;53.400;12.486;2024-01-06T05:51:23;17.52;;;10.20;;
13244;SDS011;6689;53.400;12.486;2024-01-06T05:53:50;19.70;;;10.63;;
13244;SDS011;6689;53.400;12.486;2024-01-06T05:56:23;18.52;;;11.20;;
13244;SDS011;6689;53.400;12.486;2024-01-06T05:58:54;14.45;;;8.27;;
13244;SDS011;6689;53.400;12.486;2024-01-06T06:01:22;21.02;;;11.80;;
13244;SDS011;6689;53.400;12.486;2024-01-06T06:03:50;14.30;;;8.40;;
13244;SDS011;6689;53.400;12.486;2024-01-06T06:06:19;13.75;;;9.18;;
13244;SDS011;6689;53.400;12.486;2024-01-06T06:08:46;14.65;;;7.65;;
13244;SDS011;6689;53.400;12.486;2024-01-06T06:11:13;22.45;;;11.45;;
13244;SDS011;6689;53.400;12.486;2024-01-06T06:13:41;19.75;;;10.43;;
13244;SDS011;6689;53.400;12.486;2024-01-06T06:16:10;16.05;;;9.98;;
13244;SDS011;6689;53.400;12.486;2024-01-06T06:18:38;18.10;;;9.48;;
13244;SDS011;6689;53.400;12.486;2024-01-06T06:21:07;17.58;;;8.93;;
13244;SDS011;6689;53.400;12.486;2024-01-06T06:23:38;17.00;;;10.20;;
13244;SDS011;6689;53.400;12.486;2024-01-06T06:26:05;20.77;;;10.27;;
13244;SDS011;6689;53.400;12.486;2024-01-06T06:28:33;16.45;;;10.07;;
13244;SDS011;6689;53.400;12.486;2024-01-06T06:31:01;11.23;;;8.15;;
13244;SDS011;6689;53.400;12.486;2024-01-06T06:33:28;13.65;;;8.30;;
13244;SDS011;6689;53.400;12.486;2024-01-06T06:35:55;16.35;;;9.50;;
13244;SDS011;6689;53.400;12.486;2024-01-06T06:38:22;17.02;;;9.52;;
13244;SDS011;6689;53.400;12.486;2024-01-06T06:40:52;15.70;;;9.95;;
13244;SDS011;6689;53.400;12.486;2024-01-06T06:43:19;15.45;;;9.75;;
13244;SDS011;6689;53.400;12.486;2024-01-06T06:45:47;18.48;;;10.43;;
13244;SDS011;6689;53.400;12.486;2024-01-06T06:48:15;13.35;;;9.60;;
13244;SDS011;6689;53.400;12.486;2024-01-06T06:50:42;13.07;;;7.95;;
13244;SDS011;6689;53.400;12.486;2024-01-06T06:53:09;19.30;;;10.88;;
13244;SDS011;6689;53.400;12.486;2024-01-06T06:55:38;17.25;;;9.57;;
13244;SDS011;6689;53.400;12.486;2024-01-06T06:58:08;14.60;;;9.55;;
13244;SDS011;6689;53.400;12.486;2024-01-06T07:00:35;16.13;;;10.07;;
13244;SDS011;6689;53.400;12.486;2024-01-06T07:03:03;17.52;;;10.48;;
13244;SDS011;6689;53.400;12.486;2024-01-06T07:05:31;17.17;;;10.23;;
13244;SDS011;6689;53.400;12.486;2024-01-06T07:07:59;58.17;;;27.38;;
13244;SDS011;6689;53.400;12.486;2024-01-06T07:10:28;19.83;;;12.48;;
13244;SDS011;6689;53.400;12.486;2024-01-06T07:12:55;20.15;;;12.40;;
13244;SDS011;6689;53.400;12.486;2024-01-06T07:15:25;15.00;;;8.35;;
13244;SDS011;6689;53.400;12.486;2024-01-06T07:17:53;21.20;;;13.82;;
13244;SDS011;6689;53.400;12.486;2024-01-06T07:20:21;19.80;;;13.73;;
13244;SDS011;6689;53.400;12.486;2024-01-06T07:22:48;27.77;;;19.75;;
13244;SDS011;6689;53.400;12.486;2024-01-06T07:25:16;21.17;;;12.80;;
13244;SDS011;6689;53.400;12.486;2024-01-06T07:27:43;19.38;;;11.20;;
13244;SDS011;6689;53.400;12.486;2024-01-06T07:30:15;12.80;;;9.40;;
13244;SDS011;6689;53.400;12.486;2024-01-06T07:32:44;18.40;;;11.25;;
13244;SDS011;6689;53.400;12.486;2024-01-06T07:35:11;15.43;;;9.38;;
13244;SDS011;6689;53.400;12.486;2024-01-06T07:37:39;17.58;;;9.13;;
13244;SDS011;6689;53.400;12.486;2024-01-06T07:40:06;16.70;;;9.15;;
13244;SDS011;6689;53.400;12.486;2024-01-06T07:42:35;26.70;;;14.88;;
13244;SDS011;6689;53.400;12.486;2024-01-06T07:45:03;25.73;;;13.30;;
13244;SDS011;6689;53.400;12.486;2024-01-06T07:47:30;17.50;;;10.00;;
13244;SDS011;6689;53.400;12.486;2024-01-06T07:49:59;20.50;;;11.90;;
13244;SDS011;6689;53.400;12.486;2024-01-06T07:52:26;15.90;;;6.97;;
13244;SDS011;6689;53.400;12.486;2024-01-06T07:54:56;12.52;;;7.65;;
13244;SDS011;6689;53.400;12.486;2024-01-06T07:57:24;14.73;;;9.70;;
13244;SDS011;6689;53.400;12.486;2024-01-06T07:59:51;13.80;;;8.85;;
13244;SDS011;6689;53.400;12.486;2024-01-06T08:02:19;12.98;;;7.30;;
13244;SDS011;6689;53.400;12.486;2024-01-06T08:04:48;12.45;;;8.13;;
13244;SDS011;6689;53.400;12.486;2024-01-06T08:07:16;12.35;;;7.50;;
13244;SDS011;6689;53.400;12.486;2024-01-06T08:09:45;15.52;;;8.82;;
13244;SDS011;6689;53.400;12.486;2024-01-06T08:12:14;12.25;;;8.15;;
13244;SDS011;6689;53.400;12.486;2024-01-06T08:14:42;12.40;;;7.50;;
13244;SDS011;6689;53.400;12.486;2024-01-06T08:17:09;14.02;;;8.35;;
13244;SDS011;6689;53.400;12.486;2024-01-06T08:19:36;13.35;;;8.35;;
13244;SDS011;6689;53.400;12.486;2024-01-06T08:22:03;14.43;;;6.97;;
13244;SDS011;6689;53.400;12.486;2024-01-06T08:24:32;8.85;;;5.35;;
13244;SDS011;6689;53.400;12.486;2024-01-06T08:27:00;11.32;;;6.80;;
13244;SDS011;6689;53.400;12.486;2024-01-06T08:29:27;13.00;;;7.45;;
13244;SDS011;6689;53.400;12.486;2024-01-06T08:31:54;13.27;;;8.18;;
13244;SDS011;6689;53.400;12.486;2024-01-06T08:34:22;12.85;;;7.47;;
13244;SDS011;6689;53.400;12.486;2024-01-06T08:36:50;14.80;;;9.00;;
13244;SDS011;6689;53.400;12.486;2024-01-06T08:39:17;9.20;;;5.15;;
13244;SDS011;6689;53.400;12.486;2024-01-06T08:41:47;11.65;;;7.35;;
13244;SDS011;6689;53.400;12.486;2024-01-06T08:44:14;13.15;;;7.78;;
13244;SDS011;6689;53.400;12.486;2024-01-06T08:46:42;14.20;;;8.40;;
13244;SDS011;6689;53.400;12.486;2024-01-06T08:49:09;11.88;;;7.47;;
13244;SDS011;6689;53.400;12.486;2024-01-06T08:51:36;12.68;;;7.85;;
13244;SDS011;6689;53.400;12.486;2024-01-06T08:54:04;28.63;;;17.30;;
13244;SDS011;6689;53.400;12.486;2024-01-06T08:56:31;12.48;;;8.25;;
13244;SDS011;6689;53.400;12.486;2024-01-06T08:59:01;11.70;;;8.50;;
13244;SDS011;6689;53.400;12.486;2024-01-06T09:01:29;16.00;;;10.07;;
13244;SDS011;6689;53.400;12.486;2024-01-06T09:03:59;12.43;;;7.85;;
13244;SDS011;6689;53.400;12.486;2024-01-06T09:06:26;12.05;;;8.93;;
13244;SDS011;6689;53.400;12.486;2024-01-06T09:08:54;15.32;;;8.95;;
13244;SDS011;6689;53.400;12.486;2024-01-06T09:11:21;11.68;;;6.70;;
13244;SDS011;6689;53.400;12.486;2024-01-06T09:13:49;9.70;;;6.07;;
13244;SDS011;6689;53.400;12.486;2024-01-06T09:16:19;12.50;;;7.10;;
13244;SDS011;6689;53.400;12.486;2024-01-06T09:18:47;35.55;;;22.85;;
13244;SDS011;6689;53.400;12.486;2024-01-06T09:21:14;12.82;;;6.35;;
13244;SDS011;6689;53.400;12.486;2024-01-06T09:23:42;10.48;;;8.32;;
13244;SDS011;6689;53.400;12.486;2024-01-06T09:26:10;9.10;;;6.32;;
13244;SDS011;6689;53.400;12.486;2024-01-06T09:28:37;14.30;;;6.90;;
13244;SDS011;6689;53.400;12.486;2024-01-06T09:31:05;9.27;;;5.53;;
13244;SDS011;6689;53.400;12.486;2024-01-06T09:33:37;15.05;;;10.00;;
13244;SDS011;6689;53.400;12.486;2024-01-06T09:36:04;12.25;;;8.18;;
13244;SDS011;6689;53.400;12.486;2024-01-06T09:38:34;10.77;;;5.40;;
13244;SDS011;6689;53.400;12.486;2024-01-06T09:41:01;9.52;;;6.55;;
13244;SDS011;6689;53.400;12.486;2024-01-06T09:43:29;9.50;;;6.88;;
13244;SDS011;6689;53.400;12.486;2024-01-06T09:45:58;7.35;;;5.82;;
13244;SDS011;6689;53.400;12.486;2024-01-06T09:51:03;8.23;;;3.88;;
13244;SDS011;6689;53.400;12.486;2024-01-06T09:53:33;9.32;;;5.35;;
13244;SDS011;6689;53.400;12.486;2024-01-06T09:56:02;8.23;;;5.20;;
13244;SDS011;6689;53.400;12.486;2024-01-06T09:58:31;10.80;;;6.00;;
13244;SDS011;6689;53.400;12.486;2024-01-06T10:01:00;12.23;;;5.45;;
13244;SDS011;6689;53.400;12.486;2024-01-06T10:03:29;9.75;;;5.93;;
13244;SDS011;6689;53.400;12.486;2024-01-06T10:05:59;9.52;;;4.82;;
13244;SDS011;6689;53.400;12.486;2024-01-06T10:08:31;10.23;;;6.00;;
13244;SDS011;6689;53.400;12.486;2024-01-06T10:11:00;7.78;;;5.18;;
13244;SDS011;6689;53.400;12.486;2024-01-06T10:13:26;11.50;;;6.22;;
13244;SDS011;6689;53.400;12.486;2024-01-06T10:15:54;8.80;;;4.72;;
13244;SDS011;6689;53.400;12.486;2024-01-06T10:18:22;12.45;;;5.82;;
13244;SDS011;6689;53.400;12.486;2024-01-06T10:20:54;11.95;;;5.15;;
13244;SDS011;6689;53.400;12.486;2024-01-06T10:23:22;9.60;;;5.50;;
13244;SDS011;6689;53.400;12.486;2024-01-06T10:25:53;10.25;;;5.60;;
13244;SDS011;6689;53.400;12.486;2024-01-06T10:28:21;9.95;;;5.70;;
13244;SDS011;6689;53.400;12.486;2024-01-06T10:30:52;10.52;;;5.50;;
13244;SDS011;6689;53.400;12.486;2024-01-06T10:33:20;11.13;;;6.07;;
13244;SDS011;6689;53.400;12.486;2024-01-06T10:35:48;9.10;;;6.20;;
13244;SDS011;6689;53.400;12.486;2024-01-06T10:38:16;8.80;;;4.72;;
13244;SDS011;6689;53.400;12.486;2024-01-06T10:40:56;9.48;;;5.68;;
13244;SDS011;6689;53.400;12.486;2024-01-06T10:43:25;11.65;;;5.63;;
13244;SDS011;6689;53.400;12.486;2024-01-06T10:45:55;7.07;;;5.47;;
13244;SDS011;6689;53.400;12.486;2024-01-06T10:48:24;7.60;;;4.35;;
13244;SDS011;6689;53.400;12.486;2024-01-06T10:50:53;11.05;;;4.95;;
13244;SDS011;6689;53.400;12.486;2024-01-06T10:53:22;10.73;;;5.43;;
13244;SDS011;6689;53.400;12.486;2024-01-06T10:55:52;8.75;;;5.15;;
13244;SDS011;6689;53.400;12.486;2024-01-06T10:58:21;10.68;;;4.88;;
13244;SDS011;6689;53.400;12.486;2024-01-06T11:00:49;8.25;;;4.45;;
13244;SDS011;6689;53.400;12.486;2024-01-06T11:03:17;7.95;;;4.28;;
13244;SDS011;6689;53.400;12.486;2024-01-06T11:05:44;6.85;;;4.40;;
13244;SDS011;6689;53.400;12.486;2024-01-06T11:08:13;15.85;;;8.15;;
13244;SDS011;6689;53.400;12.486;2024-01-06T11:10:44;12.55;;;6.60;;
13244;SDS011;6689;53.400;12.486;2024-01-06T11:13:14;9.35;;;6.15;;
13244;SDS011;6689;53.400;12.486;2024-01-06T11:15:48;9.25;;;4.97;;
13244;SDS011;6689;53.400;12.486;2024-01-06T11:18:30;6.35;;;4.72;;
13244;SDS011;6689;53.400;12.486;2024-01-06T11:21:19;6.80;;;4.40;;
13244;SDS011;6689;53.400;12.486;2024-01-06T11:26:52;9.68;;;5.13;;
13244;SDS011;6689;53.400;12.486;2024-01-06T11:29:23;7.38;;;4.72;;
13244;SDS011;6689;53.400;12.486;2024-01-06T11:34:54;6.70;;;4.82;;
13244;SDS011;6689;53.400;12.486;2024-01-06T11:37:24;7.88;;;4.78;;
13244;SDS011;6689;53.400;12.486;2024-01-06T11:39:52;8.82;;;5.93;;
13244;SDS011;6689;53.400;12.486;2024-01-06T11:42:19;8.80;;;4.80;;
13244;SDS011;6689;53.400;12.486;2024-01-06T11:44:50;7.55;;;4.75;;
13244;SDS011;6689;53.400;12.486;2024-01-06T11:47:18;11.77;;;6.75;;
13244;SDS011;6689;53.400;12.486;2024-01-06T11:49:51;9.73;;;5.55;;
13244;SDS011;6689;53.400;12.486;2024-01-06T11:52:24;10.20;;;6.05;;
13244;SDS011;6689;53.400;12.486;2024-01-06T11:54:52;6.65;;;3.63;;
13244;SDS011;6689;53.400;12.486;2024-01-06T11:57:21;8.88;;;5.63;;
13244;SDS011;6689;53.400;12.486;2024-01-06T11:59:48;10.40;;;6.88;;
13244;SDS011;6689;53.400;12.486;2024-01-06T12:02:17;9.77;;;4.68;;
13244;SDS011;6689;53.400;12.486;2024-01-06T12:04:47;7.00;;;3.88;;
13244;SDS011;6689;53.400;12.486;2024-01-06T12:07:17;6.60;;;4.30;;
13244;SDS011;6689;53.400;12.486;2024-01-06T12:09:45;7.00;;;3.45;;
13244;SDS011;6689;53.400;12.486;2024-01-06T12:12:15;6.75;;;4.40;;
13244;SDS011;6689;53.400;12.486;2024-01-06T12:14:41;13.00;;;4.45;;
13244;SDS011;6689;53.400;12.486;2024-01-06T12:17:09;5.93;;;3.85;;
13244;SDS011;6689;53.400;12.486;2024-01-06T12:19:38;9.45;;;3.58;;
13244;SDS011;6689;53.400;12.486;2024-01-06T12:22:12;4.28;;;2.53;;
13244;SDS011;6689;53.400;12.486;2024-01-06T12:24:41;7.47;;;3.53;;
13244;SDS011;6689;53.400;12.486;2024-01-06T12:27:10;5.00;;;3.50;;
13244;SDS011;6689;53.400;12.486;2024-01-06T12:29:38;9.07;;;3.78;;
13244;SDS011;6689;53.400;12.486;2024-01-06T12:32:06;4.47;;;3.13;;
13244;SDS011;6689;53.400;12.486;2024-01-06T12:34:35;3.80;;;2.15;;
13244;SDS011;6689;53.400;12.486;2024-01-06T12:37:04;6.97;;;3.60;;
13244;SDS011;6689;53.400;12.486;2024-01-06T12:39:34;4.65;;;2.78;;
13244;SDS011;6689;53.400;12.486;2024-01-06T12:42:01;6.95;;;3.85;;
13244;SDS011;6689;53.400;12.486;2024-01-06T12:44:29;6.50;;;4.05;;
13244;SDS011;6689;53.400;12.486;2024-01-06T12:46:58;6.75;;;4.25;;
13244;SDS011;6689;53.400;12.486;2024-01-06T12:49:26;9.02;;;5.00;;
13244;SDS011;6689;53.400;12.486;2024-01-06T12:51:54;6.28;;;3.28;;
13244;SDS011;6689;53.400;12.486;2024-01-06T12:54:21;4.85;;;3.53;;
13244;SDS011;6689;53.400;12.486;2024-01-06T12:56:51;6.63;;;3.50;;
13244;SDS011;6689;53.400;12.486;2024-01-06T12:59:18;5.32;;;3.08;;
13244;SDS011;6689;53.400;12.486;2024-01-06T13:01:45;9.27;;;4.82;;
13244;SDS011;6689;53.400;12.486;2024-01-06T13:04:14;6.57;;;3.30;;
13244;SDS011;6689;53.400;12.486;2024-01-06T13:06:42;6.00;;;3.33;;
13244;SDS011;6689;53.400;12.486;2024-01-06T13:09:09;8.18;;;4.25;;
13244;SDS011;6689;53.400;12.486;2024-01-06T13:11:41;12.95;;;7.60;;
13244;SDS011;6689;53.400;12.486;2024-01-06T13:14:12;7.47;;;4.68;;
13244;SDS011;6689;53.400;12.486;2024-01-06T13:16:40;8.10;;;5.22;;
13244;SDS011;6689;53.400;12.486;2024-01-06T13:19:07;8.32;;;6.43;;
13244;SDS011;6689;53.400;12.486;2024-01-06T13:21:34;10.35;;;5.55;;
13244;SDS011;6689;53.400;12.486;2024-01-06T13:24:04;7.88;;;4.90;;
13244;SDS011;6689;53.400;12.486;2024-01-06T13:26:32;9.00;;;4.88;;
13244;SDS011;6689;53.400;12.486;2024-01-06T13:29:01;10.93;;;4.82;;
13244;SDS011;6689;53.400;12.486;2024-01-06T13:31:30;6.20;;;3.10;;
13244;SDS011;6689;53.400;12.486;2024-01-06T13:33:57;7.53;;;4.63;;
13244;SDS011;6689;53.400;12.486;2024-01-06T13:36:25;5.30;;;3.47;;
13244;SDS011;6689;53.400;12.486;2024-01-06T13:38:53;8.82;;;4.93;;
13244;SDS011;6689;53.400;12.486;2024-01-06T13:41:21;6.90;;;3.28;;
13244;SDS011;6689;53.400;12.486;2024-01-06T13:43:48;7.70;;;4.60;;
13244;SDS011;6689;53.400;12.486;2024-01-06T13:46:19;6.68;;;4.35;;
13244;SDS011;6689;53.400;12.486;2024-01-06T13:48:48;8.00;;;4.35;;
13244;SDS011;6689;53.400;12.486;2024-01-06T13:51:18;6.85;;;3.85;;
13244;SDS011;6689;53.400;12.486;2024-01-06T13:53:46;6.68;;;4.10;;
13244;SDS011;6689;53.400;12.486;2024-01-06T13:56:14;7.78;;;4.38;;
13244;SDS011;6689;53.400;12.486;2024-01-06T13:58:42;7.95;;;5.00;;
13244;SDS011;6689;53.400;12.486;2024-01-06T14:01:10;6.60;;;4.05;;
13244;SDS011;6689;53.400;12.486;2024-01-06T14:03:37;9.65;;;4.78;;
13244;SDS011;6689;53.400;12.486;2024-01-06T14:06:06;7.68;;;4.72;;
13244;SDS011;6689;53.400;12.486;2024-01-06T14:08:34;8.63;;;5.40;;
13244;SDS011;6689;53.400;12.486;2024-01-06T14:11:04;7.55;;;4.97;;
13244;SDS011;6689;53.400;12.486;2024-01-06T14:13:32;8.50;;;4.93;;
13244;SDS011;6689;53.400;12.486;2024-01-06T14:16:00;8.23;;;4.90;;
13244;SDS011;6689;53.400;12.486;2024-01-06T14:18:27;6.65;;;4.45;;
13244;SDS011;6689;53.400;12.486;2024-01-06T14:20:56;8.70;;;4.72;;
13244;SDS011;6689;53.400;12.486;2024-01-06T14:23:25;6.90;;;5.28;;
13244;SDS011;6689;53.400;12.486;2024-01-06T14:25:54;12.05;;;6.70;;
13244;SDS011;6689;53.400;12.486;2024-01-06T14:28:22;7.80;;;4.55;;
13244;SDS011;6689;53.400;12.486;2024-01-06T14:30:53;16.50;;;8.13;;
13244;SDS011;6689;53.400;12.486;2024-01-06T14:33:20;9.88;;;4.70;;
13244;SDS011;6689;53.400;12.486;2024-01-06T14:35:51;23.48;;;14.32;;
13244;SDS011;6689;53.400;12.486;2024-01-06T14:38:19;13.32;;;7.00;;
13244;SDS011;6689;53.400;12.486;2024-01-06T14:40:48;8.57;;;5.35;;
13244;SDS011;6689;53.400;12.486;2024-01-06T14:43:18;7.03;;;4.47;;
13244;SDS011;6689;53.400;12.486;2024-01-06T14:45:46;11.57;;;7.45;;
13244;SDS011;6689;53.400;12.486;2024-01-06T14:48:13;8.05;;;4.70;;